Time;durP1;ratioP1;P1;durP2;ratioP2;P2;SDS_P1;SDS_P2;PMS_P1;PMS_P2;Temp;Humidity;BMP_temperature;BMP_pressure;BME280_temperature;BME280_humidity;BME280_pressure;Samples;Min_cycle;Max_cycle;Signal;HPM_P1;HPM_P2
2023/04/19 00:01:36;;;;;;;29.75;8.38;;;6.80;99.90;;;;;;4997594;28;20128;-86
2023/04/19 00:04:02;;;;;;;20.70;7.68;;;6.80;99.90;;;;;;4998170;28;20479;-85
2023/04/19 00:06:29;;;;;;;22.95;9.20;;;6.70;99.90;;;;;;4997873;28;20037;-85
2023/04/19 00:08:56;;;;;;;21.02;8.10;;;6.70;99.90;;;;;;4997451;28;20380;-86
2023/04/19 00:11:22;;;;;;;21.27;9.05;;;6.70;99.90;;;;;;4997803;28;20022;-86
2023/04/19 00:13:48;;;;;;;20.05;8.35;;;6.70;99.90;;;;;;4997725;28;20026;-86
2023/04/19 00:16:14;;;;;;;27.30;8.30;;;6.70;99.90;;;;;;5015291;28;20022;-86
2023/04/19 00:18:40;;;;;;;24.20;8.90;;;6.70;99.90;;;;;;4997454;28;20029;-86
2023/04/19 00:21:06;;;;;;;24.70;9.77;;;6.70;99.90;;;;;;4997438;28;20103;-86
2023/04/19 00:23:32;;;;;;;21.08;8.70;;;6.60;99.90;;;;;;4996856;28;20041;-86
2023/04/19 00:25:57;;;;;;;31.25;8.70;;;6.60;99.90;;;;;;5014857;28;20077;-85
2023/04/19 00:28:24;;;;;;;24.20;9.40;;;6.60;99.90;;;;;;5014986;28;20049;-86
2023/04/19 00:30:50;;;;;;;21.98;8.85;;;6.50;99.90;;;;;;5014766;28;20464;-85
2023/04/19 00:33:16;;;;;;;27.77;8.82;;;6.50;99.90;;;;;;4996978;28;20038;-86
2023/04/19 00:35:41;;;;;;;25.38;8.20;;;6.50;99.90;;;;;;4997280;28;20029;-86
2023/04/19 00:38:07;;;;;;;27.88;8.50;;;6.40;99.90;;;;;;4996961;28;20033;-86
2023/04/19 00:40:33;;;;;;;24.25;7.75;;;6.40;99.90;;;;;;4997240;28;20361;-86
2023/04/19 00:42:59;;;;;;;23.13;8.50;;;6.40;99.90;;;;;;4996995;28;20064;-86
2023/04/19 00:45:25;;;;;;;20.77;8.35;;;6.40;99.90;;;;;;4997125;28;20378;-85
2023/04/19 00:47:51;;;;;;;21.35;9.70;;;6.40;99.90;;;;;;5014394;28;20026;-86
2023/04/19 00:50:17;;;;;;;21.65;8.90;;;6.40;99.90;;;;;;4998317;28;20040;-86
2023/04/19 00:52:43;;;;;;;18.90;7.80;;;6.40;99.90;;;;;;4998071;28;20022;-86
2023/04/19 00:55:09;;;;;;;20.35;8.30;;;6.30;99.90;;;;;;5015283;28;20503;-86
2023/04/19 00:57:36;;;;;;;32.72;9.52;;;6.30;99.90;;;;;;4997856;28;20049;-86
2023/04/19 01:00:05;;;;;;;28.98;8.70;;;6.40;99.90;;;;;;4996585;28;20029;-86
2023/04/19 01:02:31;;;;;;;26.08;8.63;;;6.40;99.90;;;;;;4996075;28;20034;-86
2023/04/19 01:04:56;;;;;;;22.42;8.55;;;6.40;99.90;;;;;;5014306;28;20026;-86
2023/04/19 01:07:23;;;;;;;21.60;8.07;;;6.40;99.90;;;;;;4996583;28;20053;-87
2023/04/19 01:09:48;;;;;;;24.20;8.55;;;6.50;99.90;;;;;;4996749;28;20502;-87
2023/04/19 01:12:14;;;;;;;24.48;8.77;;;6.50;99.90;;;;;;4996706;28;20025;-86
2023/04/19 01:14:43;;;;;;;28.25;9.20;;;6.50;99.90;;;;;;4996310;28;20026;-86
2023/04/19 01:17:08;;;;;;;24.50;8.73;;;6.50;99.90;;;;;;4996941;28;20038;-86
2023/04/19 01:19:35;;;;;;;25.52;9.07;;;6.60;99.90;;;;;;4997590;28;20028;-84
2023/04/19 01:22:02;;;;;;;26.38;9.48;;;6.60;99.90;;;;;;4997030;28;20418;-87
2023/04/19 01:24:29;;;;;;;21.25;8.57;;;6.60;99.90;;;;;;4996855;28;20025;-84
2023/04/19 01:26:55;;;;;;;22.60;8.25;;;6.70;99.90;;;;;;4996508;28;20430;-86
2023/04/19 01:29:21;;;;;;;28.20;8.32;;;6.70;99.90;;;;;;4996023;28;20433;-85
2023/04/19 01:31:50;;;;;;;19.67;8.43;;;6.70;99.90;;;;;;4995722;28;20128;-86
2023/04/19 01:34:16;;;;;;;25.33;9.02;;;6.70;99.90;;;;;;4996084;28;20415;-85
2023/04/19 01:36:42;;;;;;;26.70;8.75;;;6.70;99.90;;;;;;4995606;28;20029;-86
2023/04/19 01:39:07;;;;;;;28.90;9.52;;;6.70;99.90;;;;;;4996073;28;20525;-84
2023/04/19 01:41:33;;;;;;;16.92;8.60;;;6.70;99.90;;;;;;5013485;28;20118;-86
2023/04/19 01:43:59;;;;;;;24.35;8.70;;;6.80;99.90;;;;;;4995866;28;20475;-86
2023/04/19 01:46:25;;;;;;;28.73;8.63;;;6.80;99.90;;;;;;4995576;28;20447;-86
2023/04/19 01:48:51;;;;;;;29.20;9.18;;;6.80;99.90;;;;;;4995809;28;20030;-84
2023/04/19 01:51:17;;;;;;;21.38;8.48;;;6.80;99.90;;;;;;4995607;28;20112;-86
2023/04/19 01:53:42;;;;;;;24.88;8.57;;;6.90;99.90;;;;;;4995746;28;20033;-86
2023/04/19 01:56:08;;;;;;;27.75;8.93;;;6.90;99.90;;;;;;4995510;28;20026;-86
2023/04/19 01:58:33;;;;;;;24.00;8.70;;;6.90;99.90;;;;;;4995539;28;20022;-84
2023/04/19 02:00:59;;;;;;;25.45;8.23;;;6.90;99.90;;;;;;4995386;28;20559;-87
2023/04/19 02:03:25;;;;;;;24.08;8.30;;;7.00;99.90;;;;;;4995335;28;20124;-84
2023/04/19 02:05:50;;;;;;;31.20;8.52;;;7.00;99.90;;;;;;4995462;28;20113;-86
2023/04/19 02:08:16;;;;;;;18.58;8.25;;;7.00;99.90;;;;;;5011920;28;20515;-84
2023/04/19 02:10:42;;;;;;;25.20;8.70;;;7.00;99.90;;;;;;5012803;28;20500;-86
2023/04/19 02:13:07;;;;;;;21.02;8.77;;;7.10;99.90;;;;;;5012703;28;20097;-85
2023/04/19 02:15:35;;;;;;;30.05;9.07;;;7.10;99.90;;;;;;5012839;28;20112;-85
2023/04/19 02:18:01;;;;;;;20.70;8.00;;;7.10;99.90;;;;;;5012844;28;20021;-86
2023/04/19 02:20:27;;;;;;;27.25;9.23;;;7.10;99.90;;;;;;5012407;28;20028;-86
2023/04/19 02:22:54;;;;;;;23.92;7.97;;;7.10;99.90;;;;;;4995076;28;20050;-86
2023/04/19 02:25:19;;;;;;;24.10;9.63;;;7.10;99.90;;;;;;4994908;28;20100;-86
2023/04/19 02:27:45;;;;;;;17.35;8.88;;;7.10;99.90;;;;;;5012567;28;20025;-86
2023/04/19 02:30:11;;;;;;;28.15;10.00;;;7.10;99.90;;;;;;4994692;28;20475;-85
2023/04/19 02:32:37;;;;;;;22.80;9.18;;;7.10;99.90;;;;;;5012567;28;20042;-86
2023/04/19 02:35:02;;;;;;;24.67;10.05;;;7.10;99.90;;;;;;4994947;28;20025;-85
2023/04/19 02:37:28;;;;;;;23.42;8.93;;;7.10;99.90;;;;;;5012259;28;20041;-85
2023/04/19 02:39:53;;;;;;;20.33;10.30;;;7.10;99.90;;;;;;5012438;28;20030;-86
2023/04/19 02:42:19;;;;;;;34.28;11.50;;;7.10;99.90;;;;;;4994819;28;20042;-86
2023/04/19 02:44:45;;;;;;;33.33;11.18;;;7.10;99.90;;;;;;4994891;28;20551;-86
2023/04/19 02:47:10;;;;;;;35.80;11.93;;;7.10;99.90;;;;;;4995250;28;20029;-85
2023/04/19 02:49:40;;;;;;;21.92;9.68;;;7.10;99.90;;;;;;5013043;28;20022;-85
2023/04/19 02:52:05;;;;;;;38.67;14.13;;;7.10;99.90;;;;;;4995577;28;20487;-86
2023/04/19 02:54:32;;;;;;;32.13;11.32;;;7.10;99.90;;;;;;5012969;28;20022;-86
2023/04/19 02:56:57;;;;;;;24.60;10.32;;;7.00;99.90;;;;;;4995413;28;20045;-86
2023/04/19 02:59:23;;;;;;;29.83;11.48;;;7.10;99.90;;;;;;4995099;28;20427;-85
2023/04/19 03:01:49;;;;;;;33.40;11.98;;;7.10;99.90;;;;;;5012872;28;20061;-85
2023/04/19 03:04:15;;;;;;;25.00;12.00;;;7.10;99.90;;;;;;4995376;28;20022;-85
2023/04/19 03:06:43;;;;;;;38.83;11.93;;;7.10;99.90;;;;;;4995487;28;20056;-86
2023/04/19 03:09:09;;;;;;;29.85;12.88;;;7.10;99.90;;;;;;4995231;28;20038;-85
2023/04/19 03:11:35;;;;;;;28.73;12.68;;;7.10;99.90;;;;;;4995155;28;20028;-86
2023/04/19 03:14:01;;;;;;;36.10;14.15;;;7.10;99.90;;;;;;4995057;28;20026;-85
2023/04/19 03:16:29;;;;;;;25.15;12.57;;;7.10;99.90;;;;;;5012768;28;20041;-86
2023/04/19 03:18:55;;;;;;;29.80;13.00;;;7.10;99.90;;;;;;5012748;28;20080;-85
2023/04/19 03:21:20;;;;;;;32.58;14.57;;;7.10;99.90;;;;;;4994953;28;20092;-86
2023/04/19 03:23:46;;;;;;;34.42;12.40;;;7.10;99.90;;;;;;4994952;28;20037;-85
2023/04/19 03:26:12;;;;;;;35.90;14.52;;;7.10;99.90;;;;;;4995524;28;20468;-85
2023/04/19 03:28:37;;;;;;;31.55;13.57;;;7.10;99.90;;;;;;4994814;28;20033;-86
2023/04/19 03:31:03;;;;;;;35.15;13.65;;;7.10;99.90;;;;;;4994842;28;20022;-85
2023/04/19 03:33:28;;;;;;;38.17;15.15;;;7.10;99.90;;;;;;4994958;28;20033;-86
2023/04/19 03:35:54;;;;;;;39.75;15.43;;;7.10;99.90;;;;;;4994914;28;20028;-85
2023/04/19 03:38:20;;;;;;;34.97;15.27;;;7.10;99.90;;;;;;5012492;28;20622;-86
2023/04/19 03:40:46;;;;;;;32.30;14.60;;;7.10;99.90;;;;;;4995153;28;20490;-86
2023/04/19 03:43:12;;;;;;;37.40;15.05;;;7.10;99.90;;;;;;4994887;28;20040;-85
2023/04/19 03:45:38;;;;;;;36.50;16.02;;;7.10;99.90;;;;;;4994934;28;20022;-85
2023/04/19 03:48:04;;;;;;;37.50;15.90;;;7.20;99.90;;;;;;4995075;28;20034;-86
2023/04/19 03:50:30;;;;;;;36.40;15.45;;;7.10;99.90;;;;;;4994823;28;20056;-85
2023/04/19 03:52:55;;;;;;;37.08;14.45;;;7.20;99.90;;;;;;4994774;28;20439;-85
2023/04/19 03:55:21;;;;;;;35.38;18.88;;;7.20;99.90;;;;;;4994860;28;20053;-86
2023/04/19 03:57:46;;;;;;;34.88;16.13;;;7.10;99.90;;;;;;4994946;28;20033;-85
2023/04/19 04:00:12;;;;;;;29.92;15.95;;;7.20;99.90;;;;;;4997968;28;20033;-86
2023/04/19 04:02:38;;;;;;;35.75;18.67;;;7.10;99.90;;;;;;4998553;28;20030;-86
2023/04/19 04:05:05;;;;;;;33.22;18.02;;;7.10;99.90;;;;;;4998501;28;20022;-86
2023/04/19 04:07:31;;;;;;;35.60;18.55;;;7.10;99.90;;;;;;4998055;28;20894;-86
2023/04/19 04:09:56;;;;;;;40.97;18.58;;;7.10;99.90;;;;;;4998409;28;20062;-87
2023/04/19 04:12:22;;;;;;;36.40;17.23;;;7.10;99.90;;;;;;5015611;28;20065;-86
2023/04/19 04:14:48;;;;;;;32.17;17.23;;;7.20;99.90;;;;;;4998471;28;20037;-86
2023/04/19 04:17:13;;;;;;;32.72;15.95;;;7.20;99.90;;;;;;4998421;28;20482;-86
2023/04/19 04:19:39;;;;;;;40.20;16.80;;;7.20;99.90;;;;;;4998270;28;20049;-85
2023/04/19 04:22:05;;;;;;;42.42;18.95;;;7.20;99.90;;;;;;4998084;28;20045;-86
2023/04/19 04:24:43;;;;;;;33.88;16.48;;;7.20;99.90;;;;;;4998054;28;20471;-86
2023/04/19 04:27:09;;;;;;;34.30;18.58;;;7.20;99.90;;;;;;4998139;28;20486;-86
2023/04/19 04:29:36;;;;;;;43.38;17.98;;;7.20;99.90;;;;;;4997988;28;20028;-86
2023/04/19 04:32:03;;;;;;;41.30;18.10;;;7.20;99.90;;;;;;4998189;28;20026;-86
2023/04/19 04:34:28;;;;;;;40.80;18.58;;;7.20;99.90;;;;;;5016087;28;20026;-86
2023/04/19 04:36:54;;;;;;;35.85;16.40;;;7.20;99.90;;;;;;4998076;28;20419;-85
2023/04/19 04:39:20;;;;;;;40.47;17.25;;;7.20;99.90;;;;;;5015380;28;20089;-86
2023/04/19 04:41:47;;;;;;;42.58;19.02;;;7.20;99.90;;;;;;4997531;28;20034;-86
2023/04/19 04:44:14;;;;;;;44.15;19.75;;;7.20;99.90;;;;;;4997695;28;20061;-87
2023/04/19 04:46:39;;;;;;;44.28;19.42;;;7.20;99.90;;;;;;5014996;28;20041;-86
2023/04/19 04:49:06;;;;;;;40.50;19.27;;;7.20;99.90;;;;;;5014945;28;20026;-86
2023/04/19 04:51:31;;;;;;;38.10;18.23;;;7.20;99.90;;;;;;4997564;28;20072;-86
2023/04/19 04:53:57;;;;;;;37.28;17.77;;;7.20;99.90;;;;;;4997876;28;20472;-86
2023/04/19 04:56:24;;;;;;;40.65;18.80;;;7.20;99.90;;;;;;4997642;28;20025;-87
2023/04/19 04:58:50;;;;;;;38.38;18.65;;;7.30;99.90;;;;;;4997807;28;20029;-84
2023/04/19 05:01:18;;;;;;;37.25;17.25;;;7.30;99.90;;;;;;4997443;28;20022;-86
2023/04/19 05:03:44;;;;;;;46.55;18.92;;;7.30;99.90;;;;;;4997642;28;20036;-84
2023/04/19 05:06:09;;;;;;;42.60;18.23;;;7.30;99.90;;;;;;4997265;28;20022;-86
2023/04/19 05:08:35;;;;;;;37.70;17.67;;;7.30;99.90;;;;;;4993959;28;20061;-86
2023/04/19 05:11:01;;;;;;;40.42;17.92;;;7.30;99.90;;;;;;4992988;28;20031;-86
2023/04/19 05:13:27;;;;;;;42.40;19.52;;;7.30;99.90;;;;;;4995466;28;20030;-86
2023/04/19 05:15:53;;;;;;;45.00;18.55;;;7.30;99.90;;;;;;4991073;28;20023;-86
2023/04/19 05:18:18;;;;;;;43.45;19.70;;;7.40;99.90;;;;;;4975059;28;20039;-86
2023/04/19 05:20:45;;;;;;;39.45;20.13;;;7.40;99.90;;;;;;4974976;28;20029;-87
2023/04/19 05:23:11;;;;;;;38.95;18.13;;;7.40;99.90;;;;;;4974297;28;20042;-86
2023/04/19 05:25:36;;;;;;;37.22;18.60;;;7.40;99.90;;;;;;4974737;28;20027;-85
2023/04/19 05:28:02;;;;;;;46.30;18.40;;;7.40;99.90;;;;;;4974695;28;20027;-86
2023/04/19 05:30:28;;;;;;;41.35;18.40;;;7.40;99.90;;;;;;4974504;28;20436;-86
2023/04/19 05:32:55;;;;;;;38.05;16.90;;;7.40;99.90;;;;;;4975620;28;20026;-86
2023/04/19 05:35:21;;;;;;;46.20;19.20;;;7.40;99.90;;;;;;4974419;28;20105;-87
2023/04/19 05:37:46;;;;;;;47.22;19.35;;;7.40;99.90;;;;;;4974151;28;20066;-86
2023/04/19 05:40:12;;;;;;;44.83;18.35;;;7.40;99.90;;;;;;4975388;28;20030;-86
2023/04/19 05:42:38;;;;;;;42.05;18.08;;;7.40;99.90;;;;;;4974098;28;20046;-86
2023/04/19 05:45:06;;;;;;;40.03;19.88;;;7.40;99.90;;;;;;4974177;28;20027;-86
2023/04/19 05:47:31;;;;;;;39.28;18.48;;;7.40;99.90;;;;;;4974032;28;20046;-86
2023/04/19 05:49:57;;;;;;;48.40;21.35;;;7.40;99.90;;;;;;4975615;28;20027;-86
2023/04/19 05:52:23;;;;;;;44.85;20.15;;;7.30;99.90;;;;;;4973915;28;20051;-85
2023/04/19 05:54:48;;;;;;;46.83;21.48;;;7.40;99.90;;;;;;4973965;28;20022;-85
2023/04/19 05:57:14;;;;;;;49.08;20.08;;;7.40;99.90;;;;;;4975249;28;20042;-86
2023/04/19 05:59:40;;;;;;;38.80;18.25;;;7.30;99.90;;;;;;4992240;28;20443;-86
2023/04/19 06:02:06;;;;;;;40.22;20.65;;;7.30;99.90;;;;;;4990957;28;20034;-86
2023/04/19 06:04:32;;;;;;;46.22;20.13;;;7.40;99.90;;;;;;4992549;28;20089;-86
2023/04/19 06:06:57;;;;;;;44.72;19.13;;;7.40;99.90;;;;;;4990911;28;20026;-86
2023/04/19 06:09:23;;;;;;;46.17;21.38;;;7.40;99.90;;;;;;4990704;28;20042;-85
2023/04/19 06:11:49;;;;;;;44.20;19.58;;;7.40;99.90;;;;;;4990942;28;20542;-86
2023/04/19 06:14:14;;;;;;;48.47;19.67;;;7.50;99.90;;;;;;4990823;28;20109;-86
2023/04/19 06:16:41;;;;;;;48.55;21.50;;;7.50;99.90;;;;;;4990629;28;20038;-86
2023/04/19 06:19:09;;;;;;;32.53;17.40;;;7.50;99.90;;;;;;4990610;28;20026;-86
2023/04/19 06:21:35;;;;;;;48.08;19.42;;;7.50;99.90;;;;;;4990118;28;20038;-86
2023/04/19 06:24:00;;;;;;;45.42;19.45;;;7.50;99.90;;;;;;4990968;28;20023;-86
2023/04/19 06:26:26;;;;;;;43.92;19.25;;;7.50;99.90;;;;;;4990784;28;20415;-86
2023/04/19 06:28:52;;;;;;;44.35;20.40;;;7.50;99.90;;;;;;4991562;28;20361;-86
2023/04/19 06:31:17;;;;;;;32.50;17.77;;;7.50;99.90;;;;;;4991150;28;20037;-86
2023/04/19 06:33:43;;;;;;;46.20;18.38;;;7.60;99.90;;;;;;4989473;28;20172;-86
2023/04/19 06:36:09;;;;;;;33.38;16.08;;;7.60;99.90;;;;;;4991270;28;20026;-86
2023/04/19 06:38:37;;;;;;;38.25;18.80;;;7.60;99.90;;;;;;4991310;28;20030;-85
2023/04/19 06:41:03;;;;;;;51.33;20.25;;;7.60;99.90;;;;;;4991071;28;20098;-85
2023/04/19 06:43:29;;;;;;;35.53;19.35;;;7.60;99.90;;;;;;4991009;28;20028;-84
2023/04/19 06:46:02;;;;;;;46.25;19.27;;;7.60;99.90;;;;;;4990255;28;20030;-89
2023/04/19 06:48:30;;;;;;;41.80;20.27;;;7.60;99.90;;;;;;4990302;28;20121;-85
2023/04/19 06:50:56;;;;;;;40.95;18.83;;;7.70;99.90;;;;;;4991786;28;20026;-86
2023/04/19 06:53:22;;;;;;;43.88;20.08;;;7.70;99.90;;;;;;4992238;28;20510;-85
2023/04/19 06:55:48;;;;;;;46.42;21.48;;;7.70;99.90;;;;;;4992554;28;20031;-86
2023/04/19 06:58:13;;;;;;;46.42;19.92;;;7.70;99.90;;;;;;4992645;28;20484;-85
2023/04/19 07:00:39;;;;;;;42.05;19.50;;;7.70;99.90;;;;;;4991928;28;20468;-86
2023/04/19 07:03:05;;;;;;;45.35;19.30;;;7.70;99.90;;;;;;4992012;28;20049;-86
2023/04/19 07:05:31;;;;;;;42.47;18.55;;;7.70;99.90;;;;;;4991618;28;20552;-86
2023/04/19 07:07:57;;;;;;;50.10;20.35;;;7.80;99.90;;;;;;4990335;28;20615;-85
2023/04/19 07:10:23;;;;;;;43.70;19.52;;;7.80;99.90;;;;;;4981783;28;20027;-86
2023/04/19 07:12:49;;;;;;;46.85;20.90;;;7.70;99.90;;;;;;4972960;28;20084;-87
2023/04/19 07:15:15;;;;;;;35.10;13.45;;;7.80;99.90;;;;;;4982043;28;20023;-87
2023/04/19 07:17:41;;;;;;;44.60;20.95;;;7.80;99.90;;;;;;4991322;28;20185;-86
2023/04/19 07:20:08;;;;;;;48.72;19.20;;;7.80;99.90;;;;;;4982304;28;20066;-87
2023/04/19 07:22:34;;;;;;;41.30;20.00;;;7.90;99.90;;;;;;4986433;28;20142;-88
2023/04/19 07:25:00;;;;;;;47.72;21.13;;;7.90;99.90;;;;;;4988012;28;20114;-86
2023/04/19 07:27:25;;;;;;;48.47;21.38;;;7.90;99.90;;;;;;4992448;28;20193;-89
2023/04/19 07:29:52;;;;;;;38.13;19.92;;;7.90;99.90;;;;;;4982833;28;21292;-89
2023/04/19 07:32:18;;;;;;;51.38;22.10;;;8.00;99.90;;;;;;4982759;28;20085;-88
2023/04/19 07:34:44;;;;;;;46.25;21.23;;;8.00;99.90;;;;;;4993488;28;20026;-87
2023/04/19 07:37:11;;;;;;;48.10;20.88;;;8.00;99.90;;;;;;4987392;28;20027;-88
2023/04/19 07:39:37;;;;;;;49.20;19.00;;;8.10;99.90;;;;;;4988605;28;20130;-88
2023/04/19 07:42:02;;;;;;;49.10;22.38;;;8.10;99.90;;;;;;4985298;28;20520;-88
2023/04/19 07:44:28;;;;;;;45.03;18.13;;;8.10;99.90;;;;;;4985393;28;20114;-88
2023/04/19 07:46:54;;;;;;;46.05;20.52;;;8.10;99.90;;;;;;4991561;28;20022;-88
2023/04/19 07:49:19;;;;;;;48.97;22.88;;;8.20;99.90;;;;;;4984869;28;20026;-89
2023/04/19 07:51:45;;;;;;;48.85;22.35;;;8.20;99.90;;;;;;4990010;28;20081;-88
2023/04/19 07:54:11;;;;;;;45.33;22.08;;;8.20;99.90;;;;;;4994826;28;20037;-88
2023/04/19 07:56:37;;;;;;;46.72;22.25;;;8.30;99.90;;;;;;4997139;28;20034;-88
2023/04/19 07:59:02;;;;;;;50.70;22.85;;;8.40;99.90;;;;;;4994803;28;20545;-88
2023/04/19 08:01:31;;;;;;;46.80;22.73;;;8.50;99.90;;;;;;4994965;28;20034;-88
2023/04/19 08:03:57;;;;;;;49.67;23.60;;;8.60;99.90;;;;;;4994827;28;20423;-88
2023/04/19 08:06:22;;;;;;;50.47;21.88;;;8.70;99.90;;;;;;4994869;28;20121;-89
2023/04/19 08:08:48;;;;;;;44.58;22.98;;;8.70;99.90;;;;;;4994435;28;20073;-88
2023/04/19 08:11:14;;;;;;;50.05;23.58;;;8.80;99.90;;;;;;4994343;28;20026;-88
2023/04/19 08:13:40;;;;;;;50.40;23.80;;;8.80;99.90;;;;;;4996387;28;20026;-89
2023/04/19 08:16:06;;;;;;;46.95;22.98;;;8.90;99.90;;;;;;4995190;28;20031;-90
2023/04/19 08:18:34;;;;;;;48.45;22.33;;;9.00;99.90;;;;;;4994177;28;20015;-89
2023/04/19 08:21:00;;;;;;;42.22;22.02;;;9.00;99.90;;;;;;4995233;28;20026;-89
2023/04/19 08:23:26;;;;;;;48.28;21.35;;;9.00;99.90;;;;;;4995986;28;20038;-89
2023/04/19 08:25:51;;;;;;;48.70;24.45;;;9.00;99.90;;;;;;4996161;28;20018;-89
2023/04/19 08:28:18;;;;;;;43.53;24.25;;;9.00;99.90;;;;;;4995725;28;20026;-90
2023/04/19 08:30:44;;;;;;;41.10;22.80;;;9.00;99.90;;;;;;4994341;28;20023;-89
2023/04/19 08:33:09;;;;;;;53.45;26.05;;;9.10;99.90;;;;;;4991466;28;20026;-89
2023/04/19 08:35:40;;;;;;;54.72;26.10;;;9.10;99.90;;;;;;4993864;28;20027;-89
2023/04/19 08:38:06;;;;;;;51.00;25.40;;;9.20;99.90;;;;;;4993076;28;20114;-90
2023/04/19 08:40:32;;;;;;;48.33;25.83;;;9.30;99.90;;;;;;4992677;28;20526;-89
2023/04/19 08:42:58;;;;;;;56.92;28.17;;;9.40;99.90;;;;;;4993181;28;20038;-90
2023/04/19 08:45:27;;;;;;;50.17;26.77;;;9.40;99.90;;;;;;4993555;28;20081;-89
2023/04/19 08:47:54;;;;;;;55.63;28.90;;;9.50;99.90;;;;;;4993852;28;20026;-88
2023/04/19 08:50:20;;;;;;;55.65;27.77;;;9.50;99.90;;;;;;4993372;28;20042;-89
2023/04/19 08:52:47;;;;;;;51.42;26.60;;;9.60;99.90;;;;;;4995392;28;20019;-89
2023/04/19 08:55:14;;;;;;;58.78;27.58;;;9.60;99.90;;;;;;4994056;28;20046;-88
2023/04/19 08:57:40;;;;;;;55.75;27.50;;;9.60;99.90;;;;;;4994765;28;20058;-88
2023/04/19 09:00:08;;;;;;;58.13;27.67;;;9.60;99.90;;;;;;4995457;28;20027;-89
2023/04/19 09:02:44;;;;;;;54.15;27.42;;;9.60;99.90;;;;;;4994480;28;20092;-89
2023/04/19 09:05:11;;;;;;;56.80;28.92;;;9.60;99.90;;;;;;4995799;28;20026;-88
2023/04/19 09:07:37;;;;;;;53.03;30.15;;;9.60;99.90;;;;;;4995830;28;20404;-89
2023/04/19 09:10:09;;;;;;;57.42;28.35;;;9.60;99.90;;;;;;4994907;28;20018;-89
2023/04/19 09:12:35;;;;;;;55.20;27.00;;;9.60;99.90;;;;;;4994851;28;20049;-89
2023/04/19 09:15:03;;;;;;;53.40;28.30;;;9.60;99.90;;;;;;4994451;28;20022;-89
2023/04/19 09:17:32;;;;;;;56.88;29.05;;;9.60;99.90;;;;;;4994016;28;20041;-89
2023/04/19 09:19:58;;;;;;;58.95;28.33;;;9.70;99.90;;;;;;4995712;28;20037;-88
2023/04/19 09:22:24;;;;;;;63.35;31.23;;;9.80;99.90;;;;;;4993355;28;20034;-89
2023/04/19 09:24:51;;;;;;;58.05;29.33;;;9.80;99.90;;;;;;4993596;28;20019;-91
2023/04/19 09:27:28;;;;;;;56.95;29.42;;;9.90;99.90;;;;;;4993289;28;20030;-89
2023/04/19 09:29:56;;;;;;;58.45;29.77;;;10.00;99.90;;;;;;4991571;28;20045;-88
2023/04/19 09:32:22;;;;;;;57.53;28.48;;;10.00;99.90;;;;;;4993133;28;20030;-88
2023/04/19 09:34:53;;;;;;;57.45;32.55;;;10.00;99.90;;;;;;4991913;28;20033;-89
2023/04/19 09:37:20;;;;;;;52.53;29.00;;;10.10;99.90;;;;;;4994360;28;20090;-88
2023/04/19 09:39:46;;;;;;;61.95;30.98;;;10.20;99.90;;;;;;4993321;28;20023;-89
2023/04/19 09:42:11;;;;;;;55.38;29.70;;;10.20;99.90;;;;;;4992887;28;20095;-88
2023/04/19 09:44:38;;;;;;;48.97;27.48;;;10.30;99.90;;;;;;4994410;28;20022;-89
2023/04/19 09:47:28;;;;;;;55.53;28.27;;;10.40;99.90;;;;;;4990915;28;20503;-89
2023/04/19 09:50:05;;;;;;;55.72;28.83;;;10.50;99.90;;;;;;4992104;28;20026;-90
2023/04/19 09:52:32;;;;;;;48.90;27.38;;;10.70;99.90;;;;;;4991885;28;20092;-90
2023/04/19 09:55:01;;;;;;;43.97;27.23;;;10.80;99.90;;;;;;4995288;28;20018;-88
2023/04/19 09:57:27;;;;;;;44.85;24.45;;;10.90;99.90;;;;;;4995089;28;20030;-89
2023/04/19 09:59:52;;;;;;;50.72;25.60;;;11.00;99.90;;;;;;4994241;28;20029;-90
2023/04/19 10:02:20;;;;;;;59.88;28.38;;;11.10;99.90;;;;;;4994918;28;20041;-90
2023/04/19 10:04:46;;;;;;;44.80;27.38;;;11.10;99.90;;;;;;4994357;28;20026;-90
2023/04/19 10:07:13;;;;;;;46.85;26.30;;;11.10;99.90;;;;;;4994196;28;20046;-89
2023/04/19 10:09:39;;;;;;;43.67;23.90;;;11.20;99.90;;;;;;4997517;28;20492;-90
2023/04/19 10:12:06;;;;;;;44.80;23.77;;;11.20;99.90;;;;;;4998032;28;20029;-90
2023/04/19 10:14:34;;;;;;;40.42;22.73;;;11.30;99.90;;;;;;4998426;28;20356;-89
2023/04/19 10:17:01;;;;;;;44.45;22.73;;;11.50;99.90;;;;;;5015831;28;20033;-91
2023/04/19 10:19:28;;;;;;;41.00;21.17;;;11.50;99.90;;;;;;4998043;28;20033;-90
2023/04/19 10:21:55;;;;;;;43.05;21.05;;;11.70;99.90;;;;;;4998310;28;20033;-90
2023/04/19 10:24:22;;;;;;;34.28;20.38;;;11.70;99.90;;;;;;4997234;28;20097;-90
2023/04/19 10:27:06;;;;;;;39.20;20.05;;;11.70;99.90;;;;;;4996085;28;20033;-89
2023/04/19 10:29:51;;;;;;;31.58;18.55;;;11.70;99.90;;;;;;4994870;28;20021;-89
2023/04/19 10:32:16;;;;;;;34.63;18.60;;;11.70;99.90;;;;;;4998591;28;20042;-90
2023/04/19 10:34:44;;;;;;;42.22;19.10;;;11.70;99.90;;;;;;4998494;28;20030;-89
2023/04/19 10:37:13;;;;;;;44.58;18.77;;;11.70;99.90;;;;;;4999413;28;20095;-89
2023/04/19 10:39:40;;;;;;;41.85;19.98;;;11.60;99.90;;;;;;4997514;28;20021;-89
2023/04/19 10:42:06;;;;;;;34.25;16.45;;;11.60;99.90;;;;;;4996716;28;20081;-90
2023/04/19 10:44:32;;;;;;;31.15;17.27;;;11.60;99.90;;;;;;4996630;28;20057;-90
2023/04/19 10:47:01;;;;;;;27.38;16.38;;;11.60;99.90;;;;;;4996646;28;20376;-90
2023/04/19 10:49:30;;;;;;;38.35;17.73;;;11.60;99.90;;;;;;4996493;28;20025;-90
2023/04/19 10:51:58;;;;;;;36.35;17.55;;;11.70;99.90;;;;;;4996287;28;20049;-90
2023/04/19 10:54:32;;;;;;;32.13;16.13;;;11.80;99.90;;;;;;4993679;28;20487;-89
2023/04/19 10:57:06;;;;;;;33.95;16.33;;;11.90;99.90;;;;;;4996166;28;20125;-90
2023/04/19 10:59:36;;;;;;;27.85;15.38;;;12.10;99.90;;;;;;4993269;28;20032;-90
2023/04/19 11:02:26;;;;;;;33.50;15.23;;;12.10;99.90;;;;;;4997482;28;20034;-91
2023/04/19 11:04:52;;;;;;;31.55;15.00;;;12.20;99.90;;;;;;4986293;28;20108;-92
2023/04/19 11:07:20;;;;;;;32.20;15.25;;;12.20;99.90;;;;;;4976535;28;20062;-91
2023/04/19 11:09:47;;;;;;;31.73;14.52;;;12.30;99.90;;;;;;4977169;28;20026;-89
2023/04/19 11:12:18;;;;;;;32.25;14.05;;;12.40;99.90;;;;;;4994288;28;20023;-90
2023/04/19 11:14:47;;;;;;;;;;;12.50;99.90;;;;;;4993077;28;20490;-90
2023/04/19 11:17:26;;;;;;;26.80;11.30;;;12.50;99.90;;;;;;4996856;28;19944;-89
2023/04/19 11:19:59;;;;;;;20.70;9.95;;;12.60;99.90;;;;;;4994747;28;20041;-90
2023/04/19 11:22:37;;;;;;;28.42;11.75;;;12.60;99.90;;;;;;4994662;28;20085;-90
2023/04/19 11:25:16;;;;;;;30.17;9.95;;;12.70;99.90;;;;;;4994811;28;20061;-87
2023/04/19 11:27:43;;;;;;;21.98;9.48;;;12.80;99.90;;;;;;4994343;28;20116;-87
2023/04/19 11:30:11;;;;;;;24.33;9.32;;;12.80;99.90;;;;;;5011943;28;20026;-88
2023/04/19 11:32:44;;;;;;;22.23;8.90;;;12.80;99.90;;;;;;4994771;28;20030;-88
2023/04/19 11:35:10;;;;;;;21.50;8.68;;;12.80;99.90;;;;;;4994432;28;20041;-89
2023/04/19 11:37:38;;;;;;;22.58;8.52;;;12.90;99.90;;;;;;4995283;28;20041;-88
2023/04/19 11:40:05;;;;;;;25.75;8.90;;;12.90;99.90;;;;;;4999126;28;20049;-93
2023/04/19 11:42:38;;;;;;;23.13;9.38;;;12.80;99.90;;;;;;4996833;28;20127;-95
2023/04/19 11:45:05;;;;;;;22.75;8.35;;;12.90;99.90;;;;;;4998131;28;20467;-94
2023/04/19 11:47:32;;;;;;;23.52;8.55;;;12.90;99.90;;;;;;4997115;28;20033;-94
2023/04/19 11:50:30;;;;;;;24.23;8.23;;;12.90;99.90;;;;;;4997948;28;20057;-94
2023/04/19 11:53:08;;;;;;;22.58;10.15;;;12.90;99.90;;;;;;4996702;28;20076;-94
2023/04/19 11:55:36;;;;;;;23.00;8.80;;;13.00;99.90;;;;;;4999658;28;20471;-93
2023/04/19 11:58:02;;;;;;;20.98;8.18;;;13.00;99.90;;;;;;5000539;28;20030;-94
2023/04/19 12:00:29;;;;;;;23.33;8.68;;;13.10;99.90;;;;;;4999514;28;20057;-93
2023/04/19 12:02:58;;;;;;;16.58;7.97;;;13.10;99.90;;;;;;5004692;28;20038;-93
2023/04/19 12:05:24;;;;;;;20.40;8.02;;;13.20;99.90;;;;;;5001967;28;20425;-93
2023/04/19 12:08:08;;;;;;;21.23;7.97;;;13.50;99.90;;;;;;4998599;28;20058;-93
2023/04/19 12:10:35;;;;;;;17.88;8.68;;;13.70;99.90;;;;;;5003523;28;20022;-94
2023/04/19 12:13:15;;;;;;;16.25;8.07;;;13.70;99.90;;;;;;5011681;28;20479;-93
2023/04/19 12:15:45;;;;;;;19.20;7.87;;;13.70;99.90;;;;;;5010836;28;20026;-94
2023/04/19 12:18:11;;;;;;;23.85;8.70;;;13.70;99.90;;;;;;5004953;28;20422;-95
2023/04/19 12:20:46;;;;;;;17.60;8.60;;;13.70;99.90;;;;;;5008588;28;20029;-92
2023/04/19 12:23:14;;;;;;;20.88;8.73;;;13.70;99.90;;;;;;5004241;28;20462;-96
2023/04/19 12:25:41;;;;;;;20.42;8.57;;;13.60;99.90;;;;;;5004394;28;20029;-93
2023/04/19 12:28:07;;;;;;;17.67;7.72;;;13.60;99.90;;;;;;5008145;28;20034;-95
2023/04/19 12:30:35;;;;;;;21.83;8.43;;;13.60;99.90;;;;;;5034301;28;20041;-94
2023/04/19 12:33:01;;;;;;;18.42;7.68;;;13.70;99.90;;;;;;5015155;28;20026;-94
2023/04/19 12:35:44;;;;;;;18.52;8.65;;;13.70;99.90;;;;;;5017606;28;20045;-95
2023/04/19 12:38:10;;;;;;;20.98;7.00;;;13.60;99.90;;;;;;5015288;28;20053;-92